Time;durP1;ratioP1;P1;durP2;ratioP2;P2;SDS_P1;SDS_P2;PMS_P1;PMS_P2;Temp;Humidity;BMP_temperature;BMP_pressure;BME280_temperature;BME280_humidity;BME280_pressure;Samples;Min_cycle;Max_cycle;Signal;HPM_P1;HPM_P2
2021/03/30 00:00:29;;;;;;;25.85;14.00;;;;;;;;;;4977490;28;20033;-68
2021/03/30 00:02:55;;;;;;;29.48;13.15;;;;;;;;;;4960200;28;20031;-69
2021/03/30 00:05:21;;;;;;;31.00;13.80;;;;;;;;;;4977246;28;20034;-68
2021/03/30 00:07:47;;;;;;;32.08;12.77;;;;;;;;;;4977334;28;20463;-69
2021/03/30 00:10:15;;;;;;;26.70;11.88;;;;;;;;;;4977685;28;20023;-69
2021/03/30 00:12:42;;;;;;;24.95;12.27;;;;;;;;;;4977123;28;20030;-68
2021/03/30 00:15:09;;;;;;;29.23;11.73;;;;;;;;;;4959595;28;20105;-68
2021/03/30 00:17:35;;;;;;;29.70;12.88;;;;;;;;;;4976979;28;20394;-68
2021/03/30 00:20:02;;;;;;;27.10;13.15;;;;;;;;;;4977229;28;20026;-70
2021/03/30 00:22:28;;;;;;;26.50;12.82;;;;;;;;;;4976522;28;20023;-69
2021/03/30 00:24:55;;;;;;;26.50;13.02;;;;;;;;;;4977370;28;20023;-69
2021/03/30 00:27:21;;;;;;;29.45;12.57;;;;;;;;;;4976617;28;20370;-67
2021/03/30 00:29:47;;;;;;;28.20;12.82;;;;;;;;;;4976960;28;20033;-67
2021/03/30 00:32:14;;;;;;;26.60;13.32;;;;;;;;;;4976936;28;20367;-69
2021/03/30 00:34:40;;;;;;;29.45;13.23;;;;;;;;;;4976899;28;20033;-67
2021/03/30 00:37:07;;;;;;;25.50;14.15;;;;;;;;;;4976682;28;20023;-67
2021/03/30 00:39:33;;;;;;;29.05;13.32;;;;;;;;;;4977117;28;20038;-69
2021/03/30 00:42:00;;;;;;;25.00;13.50;;;;;;;;;;4977319;28;20038;-67
2021/03/30 00:44:26;;;;;;;28.42;13.88;;;;;;;;;;4976497;28;20023;-70
2021/03/30 00:46:52;;;;;;;28.85;14.93;;;;;;;;;;4977291;28;20027;-67
2021/03/30 00:49:20;;;;;;;29.13;14.25;;;;;;;;;;4959000;28;20114;-67
2021/03/30 00:51:47;;;;;;;27.02;14.05;;;;;;;;;;4977148;28;20027;-68
2021/03/30 00:54:14;;;;;;;28.23;13.82;;;;;;;;;;4976650;28;20023;-69
2021/03/30 00:56:40;;;;;;;29.75;14.45;;;;;;;;;;4975891;28;20046;-67
2021/03/30 00:59:06;;;;;;;29.50;13.70;;;;;;;;;;4976507;28;20050;-68
2021/03/30 01:01:32;;;;;;;27.52;13.95;;;;;;;;;;4976373;28;20023;-67
2021/03/30 01:03:58;;;;;;;32.35;15.27;;;;;;;;;;4976137;28;20019;-69
2021/03/30 01:06:25;;;;;;;32.20;15.27;;;;;;;;;;4976327;28;20073;-69
2021/03/30 01:09:00;;;;;;;37.60;17.13;;;;;;;;;;4976293;28;20053;-67
2021/03/30 01:11:36;;;;;;;36.05;16.08;;;;;;;;;;4958874;28;20050;-68
2021/03/30 01:14:14;;;;;;;32.00;14.30;;;;;;;;;;4976406;28;20378;-70
2021/03/30 01:16:44;;;;;;;26.45;13.48;;;;;;;;;;4958801;28;20031;-67
2021/03/30 01:19:23;;;;;;;30.27;13.13;;;;;;;;;;4958363;28;20470;-67
2021/03/30 01:22:05;;;;;;;27.83;13.48;;;;;;;;;;4976414;28;20026;-68
2021/03/30 01:24:35;;;;;;;25.50;13.20;;;;;;;;;;4975705;28;20102;-67
2021/03/30 01:27:22;;;;;;;32.35;14.32;;;;;;;;;;4975954;28;20026;-69
2021/03/30 01:29:55;;;;;;;24.23;12.05;;;;;;;;;;4975936;28;20027;-70
2021/03/30 01:32:21;;;;;;;24.10;12.18;;;;;;;;;;4975555;28;20034;-69
2021/03/30 01:34:47;;;;;;;28.88;12.50;;;;;;;;;;4975728;28;20118;-67
2021/03/30 01:37:14;;;;;;;28.73;13.07;;;;;;;;;;4975974;28;20034;-68
2021/03/30 01:39:42;;;;;;;28.85;12.55;;;;;;;;;;4975765;28;20031;-67
2021/03/30 01:42:09;;;;;;;24.10;11.85;;;;;;;;;;4975454;28;20027;-68
2021/03/30 01:44:36;;;;;;;29.20;12.77;;;;;;;;;;4975594;28;20382;-68
2021/03/30 01:47:02;;;;;;;23.98;13.38;;;;;;;;;;4957938;28;20094;-69
2021/03/30 01:49:30;;;;;;;26.67;12.77;;;;;;;;;;4958292;28;20390;-68
2021/03/30 01:51:58;;;;;;;25.88;12.52;;;;;;;;;;4975511;28;20026;-69
2021/03/30 01:54:24;;;;;;;22.55;12.45;;;;;;;;;;4957712;28;20529;-68
2021/03/30 01:56:52;;;;;;;25.67;13.50;;;;;;;;;;4975932;28;20054;-67
2021/03/30 01:59:18;;;;;;;26.92;13.23;;;;;;;;;;4975109;28;20022;-69
2021/03/30 02:01:46;;;;;;;24.48;13.15;;;;;;;;;;4975682;28;20370;-68
2021/03/30 02:04:13;;;;;;;26.17;13.27;;;;;;;;;;4975120;28;20030;-67
2021/03/30 02:06:40;;;;;;;36.50;14.15;;;;;;;;;;4957657;28;20057;-68
2021/03/30 02:09:13;;;;;;;28.45;13.45;;;;;;;;;;4976001;28;20475;-67
2021/03/30 02:11:46;;;;;;;33.73;17.03;;;;;;;;;;4975099;28;20019;-67
2021/03/30 02:14:13;;;;;;;28.48;14.23;;;;;;;;;;4974707;28;20356;-67
2021/03/30 02:16:59;;;;;;;25.33;13.60;;;;;;;;;;4957489;28;20040;-68
2021/03/30 02:19:40;;;;;;;28.02;13.50;;;;;;;;;;4957687;28;20027;-68
2021/03/30 02:22:08;;;;;;;27.25;12.85;;;;;;;;;;4974612;28;20030;-67
2021/03/30 02:24:35;;;;;;;25.92;12.50;;;;;;;;;;4975209;28;20023;-67
2021/03/30 02:27:03;;;;;;;27.50;13.00;;;;;;;;;;4958354;28;20061;-67
2021/03/30 02:29:34;;;;;;;23.75;12.07;;;;;;;;;;4974806;28;20027;-68
2021/03/30 02:32:02;;;;;;;27.55;12.07;;;;;;;;;;4974856;28;20015;-67
2021/03/30 02:34:30;;;;;;;21.23;11.48;;;;;;;;;;4974609;28;20034;-68
2021/03/30 02:36:57;;;;;;;23.67;11.82;;;;;;;;;;4975006;28;20038;-68
2021/03/30 02:39:23;;;;;;;22.75;11.95;;;;;;;;;;4974700;28;20033;-67
2021/03/30 02:41:50;;;;;;;20.35;11.50;;;;;;;;;;4974662;28;20029;-67
2021/03/30 02:44:18;;;;;;;22.35;11.93;;;;;;;;;;4975049;28;20030;-69
2021/03/30 02:46:45;;;;;;;20.30;11.75;;;;;;;;;;4975410;28;20027;-68
2021/03/30 02:49:12;;;;;;;22.80;11.05;;;;;;;;;;4975599;28;20558;-67
2021/03/30 02:51:40;;;;;;;24.33;10.45;;;;;;;;;;4978866;28;20033;-66
2021/03/30 02:54:07;;;;;;;24.52;10.48;;;;;;;;;;4978770;28;20051;-67
2021/03/30 02:56:33;;;;;;;19.75;10.10;;;;;;;;;;4978058;28;20055;-68
2021/03/30 02:59:00;;;;;;;20.27;10.77;;;;;;;;;;4978696;28;20356;-67
2021/03/30 03:01:26;;;;;;;21.80;11.20;;;;;;;;;;4979148;28;20102;-70
2021/03/30 03:03:53;;;;;;;21.35;11.73;;;;;;;;;;4978665;28;20027;-67
2021/03/30 03:06:19;;;;;;;22.92;12.02;;;;;;;;;;4978523;28;20109;-67
2021/03/30 03:08:52;;;;;;;21.48;11.73;;;;;;;;;;4978943;28;20023;-70
2021/03/30 03:11:17;;;;;;;;;;;;;;;;;;4975628;28;20471;-67
2021/03/30 03:13:44;;;;;;;21.60;11.73;;;;;;;;;;4978038;28;19913;-68
2021/03/30 03:16:11;;;;;;;23.13;11.55;;;;;;;;;;4978324;28;20026;-69
2021/03/30 03:18:39;;;;;;;23.60;13.35;;;;;;;;;;4977961;28;20023;-68
2021/03/30 03:21:06;;;;;;;24.75;12.30;;;;;;;;;;4978551;28;20089;-69
2021/03/30 03:23:32;;;;;;;24.42;12.27;;;;;;;;;;4961068;28;20101;-69
2021/03/30 03:25:58;;;;;;;22.48;11.65;;;;;;;;;;4960843;28;20031;-68
2021/03/30 03:28:24;;;;;;;23.08;11.35;;;;;;;;;;4977923;28;20406;-69
2021/03/30 03:30:50;;;;;;;23.20;11.85;;;;;;;;;;4977826;28;20023;-69
2021/03/30 03:33:17;;;;;;;21.08;11.95;;;;;;;;;;4961301;28;20026;-68
2021/03/30 03:35:59;;;;;;;23.23;12.05;;;;;;;;;;4960545;28;20037;-69
2021/03/30 03:38:25;;;;;;;24.67;11.32;;;;;;;;;;4960425;28;20051;-69
2021/03/30 03:40:51;;;;;;;19.48;10.98;;;;;;;;;;4977748;28;20109;-68
2021/03/30 03:43:17;;;;;;;24.25;11.10;;;;;;;;;;4977639;28;20023;-68
2021/03/30 03:45:43;;;;;;;22.65;10.77;;;;;;;;;;4977931;28;20031;-69
2021/03/30 03:48:09;;;;;;;22.17;11.70;;;;;;;;;;4960530;28;20109;-67
2021/03/30 03:50:36;;;;;;;22.25;11.18;;;;;;;;;;4977795;28;20073;-67
2021/03/30 03:53:02;;;;;;;21.85;11.07;;;;;;;;;;4977098;28;20105;-69
2021/03/30 03:55:29;;;;;;;22.55;10.40;;;;;;;;;;4977858;28;20062;-68
2021/03/30 03:57:58;;;;;;;19.85;10.32;;;;;;;;;;4960834;28;20446;-68
2021/03/30 04:00:25;;;;;;;23.80;11.50;;;;;;;;;;4976200;28;20025;-67
2021/03/30 04:02:54;;;;;;;17.50;10.55;;;;;;;;;;4978010;28;20038;-69
2021/03/30 04:05:22;;;;;;;20.02;10.82;;;;;;;;;;4977207;28;20023;-67
2021/03/30 04:07:53;;;;;;;20.40;10.80;;;;;;;;;;4977747;28;20023;-67
2021/03/30 04:10:21;;;;;;;24.27;11.57;;;;;;;;;;4977225;28;20057;-68
2021/03/30 04:12:47;;;;;;;22.67;10.80;;;;;;;;;;4977554;28;20027;-68
2021/03/30 04:15:14;;;;;;;20.88;10.95;;;;;;;;;;4977246;28;20031;-68
2021/03/30 04:17:41;;;;;;;19.42;10.23;;;;;;;;;;4977307;28;20471;-68
2021/03/30 04:20:09;;;;;;;20.35;11.30;;;;;;;;;;4976686;28;20033;-67
2021/03/30 04:22:36;;;;;;;22.20;11.30;;;;;;;;;;4960671;28;20328;-68
2021/03/30 04:25:02;;;;;;;20.00;11.07;;;;;;;;;;4959787;28;20534;-68
2021/03/30 04:27:30;;;;;;;23.90;11.60;;;;;;;;;;4976525;28;20030;-67
2021/03/30 04:29:56;;;;;;;24.83;12.18;;;;;;;;;;4977600;28;20030;-67
2021/03/30 04:32:23;;;;;;;26.08;12.95;;;;;;;;;;4976982;28;20459;-67
2021/03/30 04:34:49;;;;;;;21.88;12.13;;;;;;;;;;4976496;28;20078;-68
2021/03/30 04:37:15;;;;;;;28.17;13.00;;;;;;;;;;4976643;28;20116;-69
2021/03/30 04:39:41;;;;;;;23.90;12.63;;;;;;;;;;4977127;28;20030;-67
2021/03/30 04:42:07;;;;;;;25.40;12.65;;;;;;;;;;4959185;28;20027;-68
2021/03/30 04:44:33;;;;;;;24.48;12.45;;;;;;;;;;4977045;28;20037;-69
2021/03/30 04:46:59;;;;;;;25.88;12.00;;;;;;;;;;4977027;28;20090;-69
2021/03/30 04:49:26;;;;;;;21.98;12.50;;;;;;;;;;4976119;28;20027;-70
2021/03/30 04:51:52;;;;;;;26.65;13.20;;;;;;;;;;4976347;28;20027;-68
2021/03/30 04:54:18;;;;;;;27.23;13.38;;;;;;;;;;4975978;28;20026;-68
2021/03/30 04:56:44;;;;;;;31.95;13.70;;;;;;;;;;4976690;28;20129;-68
2021/03/30 04:59:10;;;;;;;25.08;12.80;;;;;;;;;;4976505;28;20030;-69
2021/03/30 05:01:36;;;;;;;24.75;11.88;;;;;;;;;;4976334;28;20121;-68
2021/03/30 05:04:02;;;;;;;23.27;11.93;;;;;;;;;;4976695;28;20019;-68
2021/03/30 05:06:28;;;;;;;22.27;11.82;;;;;;;;;;4976640;28;20027;-68
2021/03/30 05:08:54;;;;;;;23.98;12.70;;;;;;;;;;4976526;28;20050;-67
2021/03/30 05:11:20;;;;;;;22.70;11.82;;;;;;;;;;4976192;28;20023;-68
2021/03/30 05:13:47;;;;;;;29.17;12.95;;;;;;;;;;4975683;28;20102;-67
2021/03/30 05:16:13;;;;;;;30.77;13.25;;;;;;;;;;4958869;28;20042;-66
2021/03/30 05:18:39;;;;;;;23.65;9.55;;;;;;;;;;4976116;28;20023;-66
2021/03/30 05:21:05;;;;;;;23.23;11.00;;;;;;;;;;4976086;28;20023;-68
2021/03/30 05:23:31;;;;;;;28.60;10.57;;;;;;;;;;4975904;28;20054;-67
2021/03/30 05:25:58;;;;;;;38.38;12.02;;;;;;;;;;4959187;28;20026;-68
2021/03/30 05:28:24;;;;;;;32.83;12.27;;;;;;;;;;4959165;28;20416;-67
2021/03/30 05:30:50;;;;;;;28.83;11.60;;;;;;;;;;4975580;28;20026;-68
2021/03/30 05:33:16;;;;;;;30.92;12.77;;;;;;;;;;4975956;28;20108;-69
2021/03/30 05:35:42;;;;;;;51.60;23.50;;;;;;;;;;4975646;28;20026;-70
2021/03/30 05:38:08;;;;;;;92.53;41.53;;;;;;;;;;4975653;28;20026;-68
2021/03/30 05:40:34;;;;;;;108.25;51.47;;;;;;;;;;4975860;28;20363;-69
2021/03/30 05:43:00;;;;;;;48.53;25.88;;;;;;;;;;4975979;28;20023;-68
2021/03/30 05:45:27;;;;;;;48.38;22.27;;;;;;;;;;4974954;28;20035;-66
2021/03/30 05:47:54;;;;;;;30.08;14.43;;;;;;;;;;4955207;28;20079;-70
2021/03/30 05:50:22;;;;;;;28.13;15.00;;;;;;;;;;4974136;28;20028;-70
2021/03/30 05:53:05;;;;;;;31.65;14.52;;;;;;;;;;4973922;28;20043;-67
2021/03/30 05:55:32;;;;;;;34.85;15.77;;;;;;;;;;4973926;28;20487;-68
2021/03/30 05:57:59;;;;;;;79.38;41.08;;;;;;;;;;4973448;28;20041;-69
2021/03/30 06:00:27;;;;;;;38.13;21.40;;;;;;;;;;4973403;28;20093;-68
2021/03/30 06:03:13;;;;;;;36.10;17.67;;;;;;;;;;4973268;28;20031;-68
2021/03/30 06:05:40;;;;;;;35.55;18.77;;;;;;;;;;4973224;28;20027;-69
2021/03/30 06:08:07;;;;;;;40.95;18.58;;;;;;;;;;4972220;28;20058;-67
2021/03/30 06:10:35;;;;;;;39.20;19.15;;;;;;;;;;4972916;28;20022;-68
2021/03/30 06:13:02;;;;;;;40.10;19.85;;;;;;;;;;4955755;28;20118;-68
2021/03/30 06:15:37;;;;;;;48.67;20.52;;;;;;;;;;4955427;28;20389;-68
2021/03/30 06:18:20;;;;;;;38.05;18.73;;;;;;;;;;4973755;28;20034;-69
2021/03/30 06:20:46;;;;;;;36.88;16.55;;;;;;;;;;4955646;28;20022;-69
2021/03/30 06:23:15;;;;;;;40.58;16.50;;;;;;;;;;4973302;28;20050;-69
2021/03/30 06:25:58;;;;;;;32.85;16.60;;;;;;;;;;4974177;28;20053;-72
2021/03/30 06:28:29;;;;;;;30.23;13.60;;;;;;;;;;4973272;28;20019;-70
2021/03/30 06:31:13;;;;;;;28.95;13.40;;;;;;;;;;4972281;28;20023;-70
2021/03/30 06:33:56;;;;;;;21.60;11.50;;;;;;;;;;4974286;28;20533;-68
2021/03/30 06:36:29;;;;;;;23.38;11.30;;;;;;;;;;4972113;28;20093;-70
2021/03/30 06:38:55;;;;;;;23.30;11.65;;;;;;;;;;4973334;28;20039;-70
2021/03/30 06:41:30;;;;;;;27.80;12.25;;;;;;;;;;4973488;28;20027;-69
2021/03/30 06:46:53;;;;;;;27.10;12.32;;;;;;;;;;4971551;28;20045;-72
2021/03/30 06:49:20;;;;;;;29.75;14.00;;;;;;;;;;4955453;28;20055;-71
2021/03/30 06:51:47;;;;;;;27.48;13.27;;;;;;;;;;4973816;28;20023;-70
2021/03/30 06:54:13;;;;;;;27.73;13.85;;;;;;;;;;4973035;28;20378;-72
2021/03/30 06:56:46;;;;;;;25.17;13.07;;;;;;;;;;4954237;28;20051;-69
2021/03/30 06:59:12;;;;;;;32.45;14.38;;;;;;;;;;4952552;28;20036;-69
2021/03/30 07:01:48;;;;;;;28.67;14.68;;;;;;;;;;4952642;28;20507;-70
2021/03/30 07:04:15;;;;;;;31.85;13.90;;;;;;;;;;4955452;28;20067;-70
2021/03/30 07:06:42;;;;;;;28.52;14.13;;;;;;;;;;4955515;28;20053;-70
2021/03/30 07:09:09;;;;;;;25.05;13.45;;;;;;;;;;4951180;28;20170;-70
2021/03/30 07:11:40;;;;;;;28.35;12.88;;;;;;;;;;4956298;28;20035;-70
2021/03/30 07:14:26;;;;;;;24.50;13.45;;;;;;;;;;4960919;28;20035;-71
2021/03/30 07:17:08;;;;;;;33.53;14.05;;;;;;;;;;4960242;28;20478;-71
2021/03/30 07:19:34;;;;;;;26.67;13.85;;;;;;;;;;4957759;28;20378;-71
2021/03/30 07:22:03;;;;;;;25.83;13.25;;;;;;;;;;4953896;28;20035;-70
2021/03/30 07:24:36;;;;;;;27.33;13.10;;;;;;;;;;4956549;28;20027;-71
2021/03/30 07:27:50;;;;;;;23.85;13.70;;;;;;;;;;4951312;28;20035;-70
2021/03/30 07:30:25;;;;;;;29.70;14.15;;;;;;;;;;4951742;28;20035;-70
2021/03/30 07:32:58;;;;;;;23.63;12.38;;;;;;;;;;4952460;28;20035;-69
2021/03/30 07:35:29;;;;;;;26.45;14.07;;;;;;;;;;4953504;28;20038;-71
2021/03/30 07:37:55;;;;;;;26.70;13.52;;;;;;;;;;4955224;28;20031;-69
2021/03/30 07:40:24;;;;;;;24.88;12.32;;;;;;;;;;4955836;28;20375;-70
2021/03/30 07:42:51;;;;;;;27.55;14.25;;;;;;;;;;4957210;29;20157;-72
2021/03/30 07:45:20;;;;;;;27.20;13.18;;;;;;;;;;4954397;29;20027;-72
2021/03/30 07:47:47;;;;;;;24.45;13.05;;;;;;;;;;4956448;28;20047;-72
2021/03/30 07:50:16;;;;;;;23.30;13.27;;;;;;;;;;4957059;28;20031;-71
2021/03/30 07:52:46;;;;;;;27.00;12.20;;;;;;;;;;4956884;29;20023;-72
2021/03/30 07:55:14;;;;;;;26.20;12.38;;;;;;;;;;4961212;28;20411;-73
2021/03/30 07:58:00;;;;;;;23.73;12.02;;;;;;;;;;4958951;28;20028;-73
2021/03/30 08:00:32;;;;;;;21.02;11.13;;;;;;;;;;4943957;28;20053;-73
2021/03/30 08:02:58;;;;;;;;;;;;;;;;;;4961587;28;20041;-72
2021/03/30 08:05:27;;;;;;;24.48;11.90;;;;;;;;;;4958384;28;20307;-72
2021/03/30 08:07:54;;;;;;;26.40;12.45;;;;;;;;;;4958329;28;20509;-73
2021/03/30 08:10:20;;;;;;;23.27;11.93;;;;;;;;;;4956903;28;20027;-74
2021/03/30 08:12:46;;;;;;;22.77;11.82;;;;;;;;;;4959492;28;20034;-73
2021/03/30 08:15:31;;;;;;;19.50;9.98;;;;;;;;;;4976150;28;20030;-73
2021/03/30 08:17:58;;;;;;;19.05;10.38;;;;;;;;;;4959306;28;20121;-73
2021/03/30 08:20:26;;;;;;;22.45;12.15;;;;;;;;;;4959673;28;20363;-73
2021/03/30 08:23:10;;;;;;;25.38;12.75;;;;;;;;;;4958420;28;20548;-72
2021/03/30 08:25:37;;;;;;;27.33;13.40;;;;;;;;;;4975824;28;20074;-70
2021/03/30 08:28:03;;;;;;;21.60;10.80;;;;;;;;;;4954547;28;20741;-71
2021/03/30 08:30:29;;;;;;;21.13;10.52;;;;;;;;;;4973705;28;20038;-73
2021/03/30 08:32:56;;;;;;;25.70;11.77;;;;;;;;;;4956343;28;20027;-71
2021/03/30 08:35:28;;;;;;;33.70;16.42;;;;;;;;;;4974770;28;20062;-76
2021/03/30 08:37:55;;;;;;;;;;;;;;;;;;4983317;28;20030;-72
2021/03/30 08:40:37;;;;;;;25.58;12.25;;;;;;;;;;4967993;28;19996;-74
2021/03/30 08:43:16;;;;;;;22.40;12.63;;;;;;;;;;4968268;28;20041;-71
2021/03/30 08:45:54;;;;;;;26.23;12.35;;;;;;;;;;4971321;28;20022;-70
2021/03/30 08:48:41;;;;;;;23.05;12.02;;;;;;;;;;4970625;28;20022;-71
2021/03/30 08:51:09;;;;;;;20.27;11.73;;;;;;;;;;4961043;28;20114;-69
2021/03/30 08:53:35;;;;;;;22.38;10.82;;;;;;;;;;4973614;28;20038;-70
2021/03/30 08:56:08;;;;;;;21.42;10.43;;;;;;;;;;4972808;28;20054;-71
2021/03/30 08:58:37;;;;;;;23.45;10.43;;;;;;;;;;4972797;28;20023;-70
2021/03/30 09:01:06;;;;;;;22.05;10.32;;;;;;;;;;4973205;28;20035;-68
2021/03/30 09:03:32;;;;;;;18.52;9.57;;;;;;;;;;4954792;28;20036;-72
2021/03/30 09:05:59;;;;;;;28.55;11.73;;;;;;;;;;4973819;28;20129;-70
2021/03/30 09:08:38;;;;;;;21.67;10.68;;;;;;;;;;4973631;28;20026;-69
2021/03/30 09:11:16;;;;;;;20.80;11.48;;;;;;;;;;4953563;28;20378;-68
2021/03/30 09:13:42;;;;;;;26.15;12.82;;;;;;;;;;4973994;28;20256;-69
2021/03/30 09:16:09;;;;;;;19.92;11.20;;;;;;;;;;4955812;28;20054;-70
2021/03/30 09:18:41;;;;;;;17.40;9.23;;;;;;;;;;4977257;28;20039;-69
2021/03/30 09:21:14;;;;;;;25.00;10.77;;;;;;;;;;4971836;28;20030;-68
2021/03/30 09:23:42;;;;;;;22.80;9.65;;;;;;;;;;4973768;28;20025;-67
2021/03/30 09:26:25;;;;;;;17.60;10.35;;;;;;;;;;4973587;28;20169;-67
2021/03/30 09:28:51;;;;;;;25.40;10.70;;;;;;;;;;4972298;28;20092;-68
2021/03/30 09:31:22;;;;;;;23.33;10.48;;;;;;;;;;4976327;28;20027;-68
2021/03/30 09:33:48;;;;;;;19.33;10.77;;;;;;;;;;4971896;28;20027;-69
2021/03/30 09:36:15;;;;;;;19.25;10.50;;;;;;;;;;4971869;28;20058;-69
2021/03/30 09:39:03;;;;;;;21.48;10.48;;;;;;;;;;4973011;28;20030;-69
2021/03/30 09:41:37;;;;;;;20.83;10.30;;;;;;;;;;4971312;28;20029;-68
2021/03/30 09:44:04;;;;;;;17.00;9.05;;;;;;;;;;4970344;28;20038;-69
2021/03/30 09:46:30;;;;;;;21.02;8.95;;;;;;;;;;4971701;28;20030;-68
2021/03/30 09:48:57;;;;;;;17.15;8.70;;;;;;;;;;4973453;28;20030;-67
2021/03/30 09:51:23;;;;;;;17.20;7.65;;;;;;;;;;4972218;28;20029;-69
2021/03/30 09:53:49;;;;;;;16.75;7.80;;;;;;;;;;4956122;28;20351;-68
2021/03/30 09:56:20;;;;;;;15.57;7.70;;;;;;;;;;4972646;28;20042;-68
2021/03/30 09:58:46;;;;;;;13.25;6.32;;;;;;;;;;4969931;28;20090;-69
2021/03/30 10:01:12;;;;;;;15.25;7.32;;;;;;;;;;4973132;28;20022;-68
2021/03/30 10:03:39;;;;;;;17.65;8.82;;;;;;;;;;4972774;28;20030;-69
2021/03/30 10:06:17;;;;;;;16.33;7.68;;;;;;;;;;4971396;28;20474;-67
2021/03/30 10:08:43;;;;;;;14.90;7.90;;;;;;;;;;4973110;28;20038;-67
2021/03/30 10:11:10;;;;;;;20.90;10.20;;;;;;;;;;4972677;28;20022;-67
2021/03/30 10:13:37;;;;;;;22.13;10.73;;;;;;;;;;4971268;28;20027;-69
2021/03/30 10:16:06;;;;;;;20.50;10.27;;;;;;;;;;4973813;28;20054;-68
2021/03/30 10:18:33;;;;;;;18.85;9.40;;;;;;;;;;4974402;28;20015;-67
2021/03/30 10:21:14;;;;;;;20.23;9.23;;;;;;;;;;4973135;28;20077;-69
2021/03/30 10:23:41;;;;;;;17.53;8.90;;;;;;;;;;4974308;28;20494;-69
2021/03/30 10:26:12;;;;;;;20.17;9.40;;;;;;;;;;4973319;28;20118;-69
2021/03/30 10:28:38;;;;;;;18.95;8.70;;;;;;;;;;4973409;28;20031;-68
2021/03/30 10:31:14;;;;;;;19.73;8.40;;;;;;;;;;4971123;28;20370;-68
2021/03/30 10:33:44;;;;;;;15.32;7.25;;;;;;;;;;4972627;28;20051;-69
2021/03/30 10:36:18;;;;;;;13.90;6.10;;;;;;;;;;4972969;28;20029;-69
2021/03/30 10:39:03;;;;;;;13.48;5.70;;;;;;;;;;4956047;28;20030;-67
2021/03/30 10:41:34;;;;;;;13.73;6.68;;;;;;;;;;4953690;28;20430;-67
2021/03/30 10:44:00;;;;;;;14.32;5.90;;;;;;;;;;4973466;28;20015;-68
2021/03/30 10:46:26;;;;;;;17.33;6.00;;;;;;;;;;4971228;28;20030;-68
2021/03/30 10:49:02;;;;;;;12.05;6.53;;;;;;;;;;4972977;28;20360;-69
2021/03/30 10:51:31;;;;;;;19.23;9.15;;;;;;;;;;4971184;28;20031;-67
2021/03/30 10:53:58;;;;;;;17.13;7.80;;;;;;;;;;4973494;28;20023;-68
2021/03/30 10:56:24;;;;;;;17.33;9.07;;;;;;;;;;4969702;28;20051;-68
2021/03/30 10:58:50;;;;;;;16.90;8.65;;;;;;;;;;4972193;28;20059;-68
2021/03/30 11:01:16;;;;;;;17.33;7.90;;;;;;;;;;4972222;28;20023;-67
2021/03/30 11:03:42;;;;;;;13.10;7.55;;;;;;;;;;4972556;28;20023;-70
2021/03/30 11:06:09;;;;;;;14.80;8.10;;;;;;;;;;4973252;28;20033;-67
2021/03/30 11:08:35;;;;;;;13.90;7.78;;;;;;;;;;4955285;28;20030;-68
2021/03/30 11:11:01;;;;;;;16.23;7.18;;;;;;;;;;4957396;28;20426;-70
2021/03/30 11:13:27;;;;;;;18.73;8.48;;;;;;;;;;4976676;28;20431;-68
2021/03/30 11:15:53;;;;;;;15.68;7.38;;;;;;;;;;4976549;28;20071;-68
2021/03/30 11:18:20;;;;;;;16.85;8.02;;;;;;;;;;4976465;28;20030;-69
2021/03/30 11:20:46;;;;;;;15.20;7.22;;;;;;;;;;4959665;28;20085;-69
2021/03/30 11:23:12;;;;;;;15.65;8.00;;;;;;;;;;4975192;28;20019;-69
2021/03/30 11:25:39;;;;;;;14.38;8.50;;;;;;;;;;4972681;28;20063;-68
2021/03/30 11:28:09;;;;;;;18.48;8.43;;;;;;;;;;4975194;28;20021;-70
2021/03/30 11:31:04;;;;;;;17.27;8.23;;;;;;;;;;4976657;28;20065;-70
2021/03/30 11:33:39;;;;;;;19.05;8.95;;;;;;;;;;4974574;28;20031;-68
2021/03/30 11:36:14;;;;;;;20.30;10.63;;;;;;;;;;4956750;28;20126;-68
2021/03/30 11:38:40;;;;;;;18.90;9.07;;;;;;;;;;4976546;28;20027;-69
2021/03/30 11:41:06;;;;;;;18.77;9.35;;;;;;;;;;4958843;28;20030;-69
2021/03/30 11:43:33;;;;;;;17.65;8.65;;;;;;;;;;4976180;28;20479;-69
2021/03/30 11:45:59;;;;;;;17.17;8.90;;;;;;;;;;4958455;28;20035;-70
2021/03/30 11:48:25;;;;;;;20.80;9.40;;;;;;;;;;4973539;28;20019;-68
2021/03/30 11:50:51;;;;;;;29.95;11.20;;;;;;;;;;4958497;28;20078;-68
2021/03/30 11:53:17;;;;;;;16.10;7.95;;;;;;;;;;4974301;28;20019;-71
2021/03/30 11:55:43;;;;;;;15.80;8.20;;;;;;;;;;4973675;28;20050;-69
2021/03/30 11:58:09;;;;;;;13.60;6.70;;;;;;;;;;4975705;28;20023;-69
2021/03/30 12:00:36;;;;;;;13.73;7.10;;;;;;;;;;4976324;28;20014;-70
2021/03/30 12:03:02;;;;;;;18.58;6.65;;;;;;;;;;4975643;28;20386;-70
2021/03/30 12:05:29;;;;;;;13.20;6.40;;;;;;;;;;4958645;28;20411;-69
2021/03/30 12:07:55;;;;;;;17.33;7.55;;;;;;;;;;4975689;28;20037;-68
2021/03/30 12:10:22;;;;;;;17.88;8.43;;;;;;;;;;4975062;28;20023;-69
2021/03/30 12:12:53;;;;;;;17.98;7.70;;;;;;;;;;4975652;28;20019;-69
2021/03/30 12:15:19;;;;;;;18.25;8.68;;;;;;;;;;4975619;28;20031;-68
2021/03/30 12:17:45;;;;;;;15.65;7.30;;;;;;;;;;4973196;28;20484;-67
2021/03/30 12:20:12;;;;;;;14.52;7.13;;;;;;;;;;4975570;28;20069;-70
2021/03/30 12:22:39;;;;;;;15.32;6.78;;;;;;;;;;4957368;28;20022;-70
2021/03/30 12:25:06;;;;;;;13.55;7.00;;;;;;;;;;4973099;28;20027;-69
2021/03/30 12:27:32;;;;;;;11.48;5.97;;;;;;;;;;4975384;28;20030;-68
2021/03/30 12:29:59;;;;;;;11.05;5.85;;;;;;;;;;4975110;28;20521;-70
2021/03/30 12:32:26;;;;;;;13.27;5.63;;;;;;;;;;4955265;28;20042;-67
2021/03/30 12:34:52;;;;;;;11.20;5.53;;;;;;;;;;4975024;28;20025;-68
2021/03/30 12:37:18;;;;;;;17.10;6.03;;;;;;;;;;4975436;28;20023;-69
2021/03/30 12:39:45;;;;;;;13.25;5.18;;;;;;;;;;4974930;28;20085;-69
2021/03/30 12:42:11;;;;;;;14.38;6.25;;;;;;;;;;4975587;28;20098;-71
2021/03/30 12:44:37;;;;;;;11.02;5.40;;;;;;;;;;4975238;28;20109;-70
2021/03/30 12:47:03;;;;;;;13.80;6.47;;;;;;;;;;4974624;28;20509;-71
2021/03/30 12:49:30;;;;;;;12.70;6.00;;;;;;;;;;4958378;28;20378;-70
2021/03/30 12:51:56;;;;;;;13.02;6.75;;;;;;;;;;4974999;28;20110;-70
2021/03/30 12:54:22;;;;;;;14.05;6.60;;;;;;;;;;4974655;28;20019;-70
2021/03/30 12:56:49;;;;;;;10.73;5.80;;;;;;;;;;4957084;28;20394;-70
2021/03/30 12:59:15;;;;;;;12.20;6.55;;;;;;;;;;4975396;28;20034;-69
2021/03/30 13:01:41;;;;;;;11.20;6.60;;;;;;;;;;4957795;28;20475;-69
2021/03/30 13:04:09;;;;;;;14.88;7.68;;;;;;;;;;4974540;28;20034;-70
2021/03/30 13:06:35;;;;;;;13.10;7.65;;;;;;;;;;4957605;28;20027;-70
2021/03/30 13:09:02;;;;;;;13.07;7.38;;;;;;;;;;4974737;28;20090;-69
2021/03/30 13:11:28;;;;;;;17.52;8.30;;;;;;;;;;4974830;28;20025;-69
2021/03/30 13:13:54;;;;;;;14.10;7.30;;;;;;;;;;4974767;28;20023;-70
2021/03/30 13:16:20;;;;;;;14.68;7.32;;;;;;;;;;4974841;28;20035;-68
2021/03/30 13:18:46;;;;;;;12.80;7.00;;;;;;;;;;4957319;28;20475;-69
2021/03/30 13:21:16;;;;;;;15.95;7.47;;;;;;;;;;4974406;28;20027;-69
2021/03/30 13:23:42;;;;;;;11.80;6.28;;;;;;;;;;4976592;28;20378;-70
2021/03/30 13:26:08;;;;;;;11.77;5.97;;;;;;;;;;4972465;28;20097;-69
2021/03/30 13:28:34;;;;;;;10.82;6.30;;;;;;;;;;4957697;28;20027;-69
2021/03/30 13:31:00;;;;;;;13.85;5.40;;;;;;;;;;4974332;28;20048;-70
2021/03/30 13:33:26;;;;;;;12.27;6.43;;;;;;;;;;4973878;28;20066;-69
2021/03/30 13:35:53;;;;;;;14.55;7.05;;;;;;;;;;4974494;28;20110;-69
2021/03/30 13:38:19;;;;;;;11.48;6.03;;;;;;;;;;4974729;28;20023;-68
2021/03/30 13:40:46;;;;;;;15.07;5.90;;;;;;;;;;4974763;28;20015;-68
2021/03/30 13:43:12;;;;;;;10.82;5.35;;;;;;;;;;4974430;28;20459;-69
2021/03/30 13:45:39;;;;;;;13.35;5.78;;;;;;;;;;4957528;28;20097;-69
2021/03/30 13:48:06;;;;;;;17.05;7.10;;;;;;;;;;4954678;28;20018;-69
2021/03/30 13:50:35;;;;;;;10.80;5.72;;;;;;;;;;4957162;28;20422;-70
2021/03/30 13:53:01;;;;;;;13.38;6.40;;;;;;;;;;4957004;28;20418;-69
2021/03/30 13:55:28;;;;;;;10.05;5.25;;;;;;;;;;4953055;28;20051;-69
2021/03/30 13:57:54;;;;;;;9.27;4.93;;;;;;;;;;4950641;28;20037;-68
2021/03/30 14:00:21;;;;;;;13.07;5.93;;;;;;;;;;4953395;29;20023;-68
2021/03/30 14:02:47;;;;;;;12.18;6.25;;;;;;;;;;4953362;29;20102;-69
2021/03/30 14:05:13;;;;;;;13.95;5.80;;;;;;;;;;4952717;29;20378;-68
2021/03/30 14:07:40;;;;;;;12.68;5.57;;;;;;;;;;4953517;28;20030;-68
2021/03/30 14:10:06;;;;;;;15.00;6.63;;;;;;;;;;4952292;28;20589;-69
2021/03/30 14:12:38;;;;;;;17.38;7.68;;;;;;;;;;4952285;28;20030;-70
2021/03/30 14:15:11;;;;;;;16.98;8.60;;;;;;;;;;4950762;29;20419;-68
2021/03/30 14:17:42;;;;;;;18.35;9.18;;;;;;;;;;4952726;29;20066;-68
2021/03/30 14:20:10;;;;;;;20.00;9.70;;;;;;;;;;4951231;29;20577;-71
2021/03/30 14:22:37;;;;;;;15.43;8.73;;;;;;;;;;4953543;28;20046;-68
2021/03/30 14:25:22;;;;;;;21.40;9.43;;;;;;;;;;4952340;28;20506;-68
2021/03/30 14:27:49;;;;;;;14.95;8.85;;;;;;;;;;4951070;29;20055;-69
2021/03/30 14:30:16;;;;;;;16.75;8.88;;;;;;;;;;4952282;29;20023;-70
2021/03/30 14:32:43;;;;;;;20.25;9.85;;;;;;;;;;4952934;29;20475;-70
2021/03/30 14:35:11;;;;;;;22.85;9.95;;;;;;;;;;4954727;28;20039;-70